Time;durP1;ratioP1;P1;durP2;ratioP2;P2;SDS_P1;SDS_P2;PMS_P1;PMS_P2;Temp;Humidity;BMP_temperature;BMP_pressure;BME280_temperature;BME280_humidity;BME280_pressure;Samples;Min_cycle;Max_cycle;Signal;HPM_P1;HPM_P2
2024/04/23 00:02:06;;;;;;;;;;;;;;;;;;5342013;26;20001;-79
2024/04/23 00:04:32;;;;;;;;;;;;;;;;;;5313957;26;20001;-80
2024/04/23 00:07:01;;;;;;;;;;;;;;;;;;5336683;26;20668;-79
2024/04/23 00:09:27;;;;;;;;;;;;;;;;;;5348237;26;20000;-79
2024/04/23 00:11:55;;;;;;;;;;;;;;;;;;5341005;26;20005;-79
2024/04/23 00:14:21;;;;;;;;;;;;;;;;;;5316797;26;20365;-80
2024/04/23 00:16:50;;;;;;;;;;;;;;;;;;5315460;26;20001;-79
2024/04/23 00:19:16;;;;;;;;;;;;;;;;;;5345430;26;20012;-79
2024/04/23 00:21:44;;;;;;;;;;;;;;;;;;5347370;26;20008;-79
2024/04/23 00:24:10;;;;;;;;;;;;;;;;;;5357331;26;20000;-79
2024/04/23 00:26:39;;;;;;;;;;;;;;;;;;5356964;26;20027;-80
2024/04/23 00:29:05;;;;;;;;;;;;;;;;;;5355656;26;20023;-79
2024/04/23 00:31:33;;;;;;;;;;;;;;;;;;5357612;26;20351;-80
2024/04/23 00:33:59;;;;;;;;;;;;;;;;;;5357035;26;20012;-80
2024/04/23 00:36:28;;;;;;;;;;;;;;;;;;5354139;26;19996;-80
2024/04/23 00:38:54;;;;;;;;;;;;;;;;;;5352035;26;20004;-79
2024/04/23 00:41:22;;;;;;;;;;;;;;;;;;5323457;26;20022;-79
2024/04/23 00:43:48;;;;;;;;;;;;;;;;;;5337160;26;20085;-79
2024/04/23 00:46:17;;;;;;;;;;;;;;;;;;5351933;26;20012;-79
2024/04/23 00:48:43;;;;;;;;;;;;;;;;;;5352898;26;20008;-80
2024/04/23 00:51:11;;;;;;;;;;;;;;;;;;5351117;26;20004;-79
2024/04/23 00:53:37;;;;;;;;;;;;;;;;;;5347532;26;20011;-79
2024/04/23 00:56:06;;;;;;;;;;;;;;;;;;5332355;26;20015;-79
2024/04/23 00:58:32;;;;;;;;;;;;;;;;;;5347914;26;20058;-81
2024/04/23 01:01:00;;;;;;;;;;;;;;;;;;5349531;26;20007;-81
2024/04/23 01:03:26;;;;;;;;;;;;;;;;;;5352245;26;20003;-80
2024/04/23 01:05:55;;;;;;;;;;;;;;;;;;5353644;26;20077;-81
2024/04/23 01:08:21;;;;;;;;;;;;;;;;;;5352878;26;20023;-81
2024/04/23 01:10:49;;;;;;;;;;;;;;;;;;5358294;26;20004;-79
2024/04/23 01:13:15;;;;;;;;;;;;;;;;;;5349176;26;20090;-79
2024/04/23 01:15:44;;;;;;;;;;;;;;;;;;5347397;26;20016;-79
2024/04/23 01:18:10;;;;;;;;;;;;;;;;;;5347198;26;20023;-79
2024/04/23 01:20:38;;;;;;;;;;;;;;;;;;5344140;26;20012;-80
2024/04/23 01:23:06;;;;;;;;;;;;;;;;;;5337776;26;20105;-81
2024/04/23 01:25:34;;;;;;;;;;;;;;;;;;5347476;26;20026;-79
2024/04/23 01:28:00;;;;;;;;;;;;;;;;;;5349186;26;20468;-80
2024/04/23 01:30:29;;;;;;;;;;;;;;;;;;5334981;26;20082;-79
2024/04/23 01:32:55;;;;;;;;;;;;;;;;;;5327802;26;20381;-79
2024/04/23 01:35:23;;;;;;;;;;;;;;;;;;5356221;26;20132;-79
2024/04/23 01:37:50;;;;;;;;;;;;;;;;;;5355636;26;20012;-80
2024/04/23 01:40:18;;;;;;;;;;;;;;;;;;5359312;26;20058;-79
2024/04/23 01:42:44;;;;;;;;;;;;;;;;;;5356367;26;20018;-79
2024/04/23 01:45:15;;;;;;;;;;;;;;;;;;5354164;26;20465;-78
2024/04/23 01:47:41;;;;;;;;;;;;;;;;;;5353327;26;20006;-79
2024/04/23 01:50:09;;;;;;;;;;;;;;;;;;5354351;26;20022;-79
2024/04/23 01:52:35;;;;;;;;;;;;;;;;;;5353606;26;20022;-79
2024/04/23 01:55:04;;;;;;;;;;;;;;;;;;5353386;26;20520;-80
2024/04/23 01:57:30;;;;;;;;;;;;;;;;;;5352709;26;20499;-80
2024/04/23 01:59:59;;;;;;;;;;;;;;;;;;5353343;26;20004;-79
2024/04/23 02:02:25;;;;;;;;;;;;;;;;;;5354174;26;19999;-79
2024/04/23 02:04:53;;;;;;;;;;;;;;;;;;5353009;26;20151;-79
2024/04/23 02:07:19;;;;;;;;;;;;;;;;;;5352054;26;19996;-80
2024/04/23 02:09:48;;;;;;;;;;;;;;;;;;5356567;26;20023;-79
2024/04/23 02:12:14;;;;;;;;;;;;;;;;;;5354118;26;20073;-79
2024/04/23 02:14:42;;;;;;;;;;;;;;;;;;5352887;26;20004;-80
2024/04/23 02:17:08;;;;;;;;;;;;;;;;;;5352465;26;20086;-80
2024/04/23 02:19:37;;;;;;;;;;;;;;;;;;5352354;26;20027;-79
2024/04/23 02:22:03;;;;;;;;;;;;;;;;;;5360038;26;20023;-79
2024/04/23 02:24:31;;;;;;;;;;;;;;;;;;5352133;26;20004;-80
2024/04/23 02:26:57;;;;;;;;;;;;;;;;;;5352732;26;20011;-79
2024/04/23 02:29:26;;;;;;;;;;;;;;;;;;5351924;26;20078;-79
2024/04/23 02:31:52;;;;;;;;;;;;;;;;;;5353208;26;20023;-79
2024/04/23 02:34:20;;;;;;;;;;;;;;;;;;5350326;26;20008;-80
2024/04/23 02:36:46;;;;;;;;;;;;;;;;;;5351833;26;20007;-79
2024/04/23 02:39:15;;;;;;;;;;;;;;;;;;5352271;26;20026;-80
2024/04/23 02:41:41;;;;;;;;;;;;;;;;;;5353276;26;20020;-80
2024/04/23 02:44:09;;;;;;;;;;;;;;;;;;5349884;26;20416;-79
2024/04/23 02:46:35;;;;;;;;;;;;;;;;;;5350819;26;20008;-80
2024/04/23 02:49:04;;;;;;;;;;;;;;;;;;5355999;26;20749;-79
2024/04/23 02:51:30;;;;;;;;;;;;;;;;;;5355762;26;20452;-80
2024/04/23 02:53:58;;;;;;;;;;;;;;;;;;5355440;26;20062;-81
2024/04/23 02:56:25;;;;;;;;;;;;;;;;;;5351051;26;20059;-79
2024/04/23 02:58:54;;;;;;;;;;;;;;;;;;5349731;26;20003;-79
2024/04/23 03:01:20;;;;;;;;;;;;;;;;;;5350142;26;20023;-80
2024/04/23 03:03:49;;;;;;;;;;;;;;;;;;5348299;26;20004;-79
2024/04/23 03:06:15;;;;;;;;;;;;;;;;;;5350911;26;20016;-80
2024/04/23 03:08:43;;;;;;;;;;;;;;;;;;5348507;26;20036;-80
2024/04/23 03:11:09;;;;;;;;;;;;;;;;;;5352204;26;20004;-80
2024/04/23 03:13:38;;;;;;;;;;;;;;;;;;5348754;26;20018;-79
2024/04/23 03:16:04;;;;;;;;;;;;;;;;;;5349650;26;20008;-79
2024/04/23 03:18:33;;;;;;;;;;;;;;;;;;5348659;26;20035;-80
2024/04/23 03:20:58;;;;;;;;;;;;;;;;;;5349341;26;20004;-79
2024/04/23 03:23:27;;;;;;;;;;;;;;;;;;5360258;26;20014;-81
2024/04/23 03:25:53;;;;;;;;;;;;;;;;;;5341120;26;20086;-81
2024/04/23 03:28:22;;;;;;;;;;;;;;;;;;5327540;26;20029;-81
2024/04/23 03:30:48;;;;;;;;;;;;;;;;;;5346415;26;20099;-80
2024/04/23 03:33:16;;;;;;;;;;;;;;;;;;5360978;26;20004;-81
2024/04/23 03:35:42;;;;;;;;;;;;;;;;;;5356497;26;20016;-80
2024/04/23 03:38:11;;;;;;;;;;;;;;;;;;5352232;26;20000;-80
2024/04/23 03:40:39;;;;;;;;;;;;;;;;;;5352362;26;20016;-79
2024/04/23 03:43:05;;;;;;;;;;;;;;;;;;5350971;26;20008;-81
2024/04/23 03:45:34;;;;;;;;;;;;;;;;;;5350081;26;20023;-80
2024/04/23 03:48:01;;;;;;;;;;;;;;;;;;5350191;26;20011;-79
2024/04/23 03:50:29;;;;;;;;;;;;;;;;;;5350408;26;19996;-80
2024/04/23 03:52:55;;;;;;;;;;;;;;;;;;5349833;26;20011;-80
2024/04/23 03:55:24;;;;;;;;;;;;;;;;;;5350288;26;20022;-82
2024/04/23 03:57:50;;;;;;;;;;;;;;;;;;5348752;26;19996;-80
2024/04/23 04:00:18;;;;;;;;;;;;;;;;;;5350105;26;20008;-81
2024/04/23 04:08:16;;;;;;;;;;;;;;;;;;5351649;26;20087;-79
2024/04/23 04:10:44;;;;;;;;;;;;;;;;;;5351611;26;20004;-80
2024/04/23 04:13:13;;;;;;;;;;;;;;;;;;5331972;26;20012;-80
2024/04/23 04:15:39;;;;;;;;;;;;;;;;;;5332133;26;20013;-79
2024/04/23 04:18:08;;;;;;;;;;;;;;;;;;5324306;26;20023;-80
2024/04/23 04:20:34;;;;;;;;;;;;;;;;;;5349344;26;20008;-79
2024/04/23 04:23:02;;;;;;;;;;;;;;;;;;5348252;26;20021;-79
2024/04/23 04:25:28;;;;;;;;;;;;;;;;;;5348574;26;20000;-79
2024/04/23 04:27:57;;;;;;;;;;;;;;;;;;5340542;26;20004;-80
2024/04/23 04:30:23;;;;;;;;;;;;;;;;;;5314654;26;20001;-79
2024/04/23 04:32:51;;;;;;;;;;;;;;;;;;5348800;26;20085;-81
2024/04/23 04:35:17;;;;;;;;;;;;;;;;;;5346792;26;20352;-80
2024/04/23 04:37:46;;;;;;;;;;;;;;;;;;5345586;26;20011;-81
2024/04/23 04:40:12;;;;;;;;;;;;;;;;;;5347429;26;20000;-79
2024/04/23 04:42:42;;;;;;;;;;;;;;;;;;5346995;26;20381;-80
2024/04/23 04:45:08;;;;;;;;;;;;;;;;;;5347890;26;20389;-80
2024/04/23 04:47:36;;;;;;;;;;;;;;;;;;5347851;26;20018;-80
2024/04/23 04:50:02;;;;;;;;;;;;;;;;;;5347453;26;20046;-80
2024/04/23 04:52:31;;;;;;;;;;;;;;;;;;5348073;26;20008;-79
2024/04/23 04:54:57;;;;;;;;;;;;;;;;;;5347325;26;20385;-79
2024/04/23 04:57:25;;;;;;;;;;;;;;;;;;5346787;26;20028;-79
2024/04/23 04:59:51;;;;;;;;;;;;;;;;;;5347856;26;20094;-80
2024/04/23 05:02:20;;;;;;;;;;;;;;;;;;5348025;26;20473;-81
2024/04/23 05:04:46;;;;;;;;;;;;;;;;;;5347700;26;20016;-78
2024/04/23 05:07:15;;;;;;;;;;;;;;;;;;5345528;26;19996;-79
2024/04/23 05:09:42;;;;;;;;;;;;;;;;;;5337466;26;20027;-80
2024/04/23 05:12:11;;;;;;;;;;;;;;;;;;5347614;26;20085;-79
2024/04/23 05:14:37;;;;;;;;;;;;;;;;;;5341349;26;20031;-79
2024/04/23 05:17:06;;;;;;;;;;;;;;;;;;5328048;26;20007;-79
2024/04/23 05:19:32;;;;;;;;;;;;;;;;;;5348964;26;20033;-79
2024/04/23 05:22:00;;;;;;;;;;;;;;;;;;5371597;26;20483;-79
2024/04/23 05:24:26;;;;;;;;;;;;;;;;;;5359799;26;20026;-79
2024/04/23 05:26:55;;;;;;;;;;;;;;;;;;5361925;26;20444;-81
2024/04/23 05:29:23;;;;;;;;;;;;;;;;;;5356191;26;20042;-80
2024/04/23 05:34:51;;;;;;;;;;;;;;;;;;5224890;27;20020;-79
2024/04/23 05:37:20;;;;;;;;;;;;;;;;;;5229399;27;20038;-80
2024/04/23 05:39:48;;;;;;;;;;;;;;;;;;5285102;26;20023;-80
2024/04/23 05:42:17;;;;;;;;;;;;;;;;;;5349160;26;20475;-79
2024/04/23 05:44:46;;;;;;;;;;;;;;;;;;5354229;26;20514;-81
2024/04/23 05:47:14;;;;;;;;;;;;;;;;;;5339844;26;20000;-80
2024/04/23 05:49:40;;;;;;;;;;;;;;;;;;5339944;26;20022;-81
2024/04/23 05:52:09;;;;;;;;;;;;;;;;;;5335611;26;20009;-81
2024/04/23 05:54:35;;;;;;;;;;;;;;;;;;5346382;26;20023;-80
2024/04/23 05:57:04;;;;;;;;;;;;;;;;;;5341778;26;20044;-80
2024/04/23 05:59:30;;;;;;;;;;;;;;;;;;5347748;26;20028;-81
2024/04/23 06:01:58;;;;;;;;;;;;;;;;;;5352683;26;20003;-80
2024/04/23 06:04:26;;;;;;;;;;;;;;;;;;5345432;26;20027;-80
2024/04/23 06:06:54;;;;;;;;;;;;;;;;;;5336427;26;20423;-81
2024/04/23 06:09:20;;;;;;;;;;;;;;;;;;5345283;26;20019;-81
2024/04/23 06:11:49;;;;;;;;;;;;;;;;;;5336442;26;20004;-80
2024/04/23 06:14:17;;;;;;;;;;;;;;;;;;5343836;26;20012;-81
2024/04/23 06:16:44;;;;;;;;;;;;;;;;;;5334983;26;20012;-80
2024/04/23 06:19:12;;;;;;;;;;;;;;;;;;5343847;26;20055;-81
2024/04/23 06:21:38;;;;;;;;;;;;;;;;;;5348550;26;20000;-81
2024/04/23 06:24:07;;;;;;;;;;;;;;;;;;5366939;26;20037;-81
2024/04/23 06:26:33;;;;;;;;;;;;;;;;;;5383017;26;19999;-80
2024/04/23 06:29:01;;;;;;;;;;;;;;;;;;5382745;26;19999;-80
2024/04/23 06:31:30;;;;;;;;;;;;;;;;;;5373414;26;20001;-80
2024/04/23 06:33:59;;;;;;;;;;;;;;;;;;5379995;26;20026;-81
2024/04/23 06:36:25;;;;;;;;;;;;;;;;;;5374796;26;20007;-80
2024/04/23 06:38:53;;;;;;;;;;;;;;;;;;5373808;26;20003;-81
2024/04/23 06:41:20;;;;;;;;;;;;;;;;;;5359331;26;20057;-80
2024/04/23 06:43:48;;;;;;;;;;;;;;;;;;5363269;26;20003;-80
2024/04/23 06:46:14;;;;;;;;;;;;;;;;;;5360548;26;20012;-80
2024/04/23 06:48:43;;;;;;;;;;;;;;;;;;5355761;26;20527;-79
2024/04/23 06:51:09;;;;;;;;;;;;;;;;;;5369040;26;20027;-81
2024/04/23 06:53:37;;;;;;;;;;;;;;;;;;5358997;26;20004;-81
2024/04/23 06:56:03;;;;;;;;;;;;;;;;;;5364072;26;20004;-81
2024/04/23 06:58:32;;;;;;;;;;;;;;;;;;5366000;26;20495;-82
2024/04/23 07:03:42;;;;;;;;;;;;;;;;;;5342514;26;20115;-81
2024/04/23 07:06:08;;;;;;;;;;;;;;;;;;5349199;26;20023;-81
2024/04/23 07:08:36;;;;;;;;;;;;;;;;;;5344952;26;20093;-80
2024/04/23 07:11:05;;;;;;;;;;;;;;;;;;5348807;26;20004;-81
2024/04/23 07:13:33;;;;;;;;;;;;;;;;;;5344701;26;20012;-80
2024/04/23 07:15:59;;;;;;;;;;;;;;;;;;5346841;26;20004;-80
2024/04/23 07:18:28;;;;;;;;;;;;;;;;;;5345072;26;20026;-80
2024/04/23 07:20:54;;;;;;;;;;;;;;;;;;5343435;26;20012;-80
2024/04/23 07:23:23;;;;;;;;;;;;;;;;;;5339107;26;20008;-78
2024/04/23 07:25:49;;;;;;;;;;;;;;;;;;5340251;26;20004;-78
2024/04/23 07:28:17;;;;;;;;;;;;;;;;;;5347951;26;20513;-79
2024/04/23 07:30:43;;;;;;;;;;;;;;;;;;5341956;26;20008;-78
2024/04/23 07:33:12;;;;;;;;;;;;;;;;;;5346557;26;20038;-79
2024/04/23 07:35:38;;;;;;;;;;;;;;;;;;5345061;26;20008;-80
2024/04/23 07:38:09;;;;;;;;;;;;;;;;;;5344546;26;20018;-80
2024/04/23 07:40:35;;;;;;;;;;;;;;;;;;5342921;26;20000;-79
2024/04/23 07:43:04;;;;;;;;;;;;;;;;;;5346079;26;20042;-79
2024/04/23 07:45:32;;;;;;;;;;;;;;;;;;5367099;26;20057;-80
2024/04/23 07:48:01;;;;;;;;;;;;;;;;;;5374169;26;20004;-79
2024/04/23 07:50:29;;;;;;;;;;;;;;;;;;5370253;26;20023;-79
2024/04/23 07:52:55;;;;;;;;;;;;;;;;;;5355195;26;20004;-80
2024/04/23 07:55:24;;;;;;;;;;;;;;;;;;5371010;26;20025;-79
2024/04/23 07:57:51;;;;;;;;;;;;;;;;;;5364598;26;20019;-78
2024/04/23 08:00:21;;;;;;;;;;;;;;;;;;5351876;26;20480;-80
2024/04/23 08:02:47;;;;;;;;;;;;;;;;;;5356567;26;20008;-80
2024/04/23 08:05:15;;;;;;;;;;;;;;;;;;5333861;26;20090;-80
2024/04/23 08:07:41;;;;;;;;;;;;;;;;;;5325116;26;20016;-80
2024/04/23 08:10:11;;;;;;;;;;;;;;;;;;5345109;26;20417;-80
2024/04/23 08:12:37;;;;;;;;;;;;;;;;;;5358634;26;20314;-80
2024/04/23 08:15:05;;;;;;;;;;;;;;;;;;5357783;26;20075;-80
2024/04/23 08:17:32;;;;;;;;;;;;;;;;;;5364573;26;20000;-80
2024/04/23 08:20:01;;;;;;;;;;;;;;;;;;5350824;26;20012;-79
2024/04/23 08:22:26;;;;;;;;;;;;;;;;;;5339710;26;20019;-80
2024/04/23 08:24:55;;;;;;;;;;;;;;;;;;5358838;26;19999;-80
2024/04/23 08:27:21;;;;;;;;;;;;;;;;;;5351033;26;20357;-79
2024/04/23 08:29:50;;;;;;;;;;;;;;;;;;5361727;26;19996;-79
2024/04/23 08:32:16;;;;;;;;;;;;;;;;;;5354759;26;20000;-80
2024/04/23 08:34:44;;;;;;;;;;;;;;;;;;5359501;26;20039;-79
2024/04/23 08:37:10;;;;;;;;;;;;;;;;;;5364228;26;20639;-80
2024/04/23 08:39:39;;;;;;;;;;;;;;;;;;5329725;26;20044;-80
2024/04/23 08:42:05;;;;;;;;;;;;;;;;;;5334371;26;20012;-79
2024/04/23 08:44:33;;;;;;;;;;;;;;;;;;5355942;26;20022;-80
2024/04/23 08:46:59;;;;;;;;;;;;;;;;;;5353629;26;20018;-79
2024/04/23 08:49:28;;;;;;;;;;;;;;;;;;5337819;26;20353;-80
2024/04/23 08:51:54;;;;;;;;;;;;;;;;;;5321299;26;20480;-80
2024/04/23 08:54:22;;;;;;;;;;;;;;;;;;5355955;26;20001;-81
2024/04/23 08:56:48;;;;;;;;;;;;;;;;;;5347071;26;20007;-80
2024/04/23 08:59:17;;;;;;;;;;;;;;;;;;5356652;26;20058;-80
2024/04/23 09:01:43;;;;;;;;;;;;;;;;;;5354562;26;20004;-81
2024/04/23 09:04:12;;;;;;;;;;;;;;;;;;5356045;26;20004;-81
2024/04/23 09:06:38;;;;;;;;;;;;;;;;;;5362953;26;20008;-81
2024/04/23 09:09:06;;;;;;;;;;;;;;;;;;5346680;26;20022;-82
2024/04/23 09:11:32;;;;;;;;;;;;;;;;;;5354198;26;20004;-80
2024/04/23 09:14:01;;;;;;;;;;;;;;;;;;5356791;26;20022;-81
2024/04/23 09:16:28;;;;;;;;;;;;;;;;;;5354934;26;20019;-83
2024/04/23 09:18:56;;;;;;;;;;;;;;;;;;5362197;26;20706;-82
2024/04/23 09:21:24;;;;;;;;;;;;;;;;;;5352977;26;20004;-82
2024/04/23 09:23:53;;;;;;;;;;;;;;;;;;5346464;26;20068;-82
2024/04/23 09:26:19;;;;;;;;;;;;;;;;;;5376365;26;20003;-82
2024/04/23 09:28:47;;;;;;;;;;;;;;;;;;5324366;26;20032;-83
2024/04/23 09:31:15;;;;;;;;;;;;;;;;;;5340219;26;20364;-82
2024/04/23 09:33:44;;;;;;;;;;;;;;;;;;5359178;26;20043;-82
2024/04/23 09:36:10;;;;;;;;;;;;;;;;;;5346088;26;19931;-82
2024/04/23 09:38:39;;;;;;;;;;;;;;;;;;5319290;26;20041;-82
2024/04/23 09:41:05;;;;;;;;;;;;;;;;;;5320659;26;19973;-82
2024/04/23 09:43:34;;;;;;;;;;;;;;;;;;5321494;26;19930;-83
2024/04/23 09:46:00;;;;;;;;;;;;;;;;;;5321470;26;19938;-83
2024/04/23 09:48:29;;;;;;;;;;;;;;;;;;5321965;26;19931;-83
2024/04/23 09:50:55;;;;;;;;;;;;;;;;;;5322485;26;19938;-81
2024/04/23 09:53:23;;;;;;;;;;;;;;;;;;5336816;26;19936;-80
2024/04/23 09:55:49;;;;;;;;;;;;;;;;;;5338113;26;20418;-81
2024/04/23 09:58:18;;;;;;;;;;;;;;;;;;5324033;26;19930;-82
2024/04/23 10:00:44;;;;;;;;;;;;;;;;;;5344567;26;19958;-82
2024/04/23 10:03:13;;;;;;;;;;;;;;;;;;5347149;26;19938;-82
2024/04/23 10:05:41;;;;;;;;;;;;;;;;;;5323645;26;19938;-82
2024/04/23 10:08:11;;;;;;;;;;;;;;;;;;5321749;26;19930;-81
2024/04/23 10:10:37;;;;;;;;;;;;;;;;;;5325940;26;20383;-80
2024/04/23 10:13:06;;;;;;;;;;;;;;;;;;5357174;26;19930;-80
2024/04/23 10:15:32;;;;;;;;;;;;;;;;;;5343448;26;19930;-80
2024/04/23 10:18:00;;;;;;;;;;;;;;;;;;5321884;26;19937;-82
2024/04/23 10:20:29;;;;;;;;;;;;;;;;;;5322886;26;19938;-82
2024/04/23 10:22:58;;;;;;;;;;;;;;;;;;5322226;26;19942;-82
2024/04/23 10:25:24;;;;;;;;;;;;;;;;;;5334483;26;19930;-80
2024/04/23 10:27:53;;;;;;;;;;;;;;;;;;5353287;26;19930;-82
2024/04/23 10:30:19;;;;;;;;;;;;;;;;;;5355111;26;20004;-80
2024/04/23 10:32:47;;;;;;;;;;;;;;;;;;5354796;26;20345;-80
2024/04/23 10:35:15;;;;;;;;;;;;;;;;;;5355403;26;19941;-82
2024/04/23 10:37:44;;;;;;;;;;;;;;;;;;5355253;26;20613;-82
2024/04/23 10:40:13;;;;;;;;;;;;;;;;;;5355401;26;20267;-81
2024/04/23 10:42:39;;;;;;;;;;;;;;;;;;5354726;26;20276;-81
2024/04/23 10:45:07;;;;;;;;;;;;;;;;;;5355436;26;19930;-80
2024/04/23 10:47:33;;;;;;;;;;;;;;;;;;5358039;26;19941;-81
2024/04/23 10:50:02;;;;;;;;;;;;;;;;;;5357372;26;19934;-81
2024/04/23 10:52:28;;;;;;;;;;;;;;;;;;5356628;26;19953;-82
2024/04/23 10:54:57;;;;;;;;;;;;;;;;;;5356114;26;19942;-81
2024/04/23 10:57:23;;;;;;;;;;;;;;;;;;5353713;26;19930;-80
2024/04/23 10:59:51;;;;;;;;;;;;;;;;;;5355344;26;19937;-81
2024/04/23 11:02:17;;;;;;;;;;;;;;;;;;5354159;26;19938;-80
2024/04/23 11:04:46;;;;;;;;;;;;;;;;;;5341847;26;19937;-80
2024/04/23 11:07:12;;;;;;;;;;;;;;;;;;5341484;26;19931;-80
2024/04/23 11:09:41;;;;;;;;;;;;;;;;;;5350747;26;20428;-80
2024/04/23 11:12:07;;;;;;;;;;;;;;;;;;5333936;26;19937;-80
2024/04/23 11:14:36;;;;;;;;;;;;;;;;;;5349519;26;19949;-80
2024/04/23 11:17:02;;;;;;;;;;;;;;;;;;5347762;26;20377;-80
2024/04/23 11:19:30;;;;;;;;;;;;;;;;;;5343322;26;19950;-80
2024/04/23 11:21:56;;;;;;;;;;;;;;;;;;5335830;26;19937;-81
2024/04/23 11:24:25;;;;;;;;;;;;;;;;;;5341328;26;20398;-80
2024/04/23 11:26:51;;;;;;;;;;;;;;;;;;5361361;26;19938;-80
2024/04/23 11:29:19;;;;;;;;;;;;;;;;;;5352224;26;19938;-80
2024/04/23 11:31:49;;;;;;;;;;;;;;;;;;5352284;26;19934;-81
2024/04/23 11:34:18;;;;;;;;;;;;;;;;;;5352267;26;19930;-80
2024/04/23 11:36:46;;;;;;;;;;;;;;;;;;5356166;26;19937;-80
2024/04/23 11:39:15;;;;;;;;;;;;;;;;;;5361084;26;19938;-80
2024/04/23 11:41:43;;;;;;;;;;;;;;;;;;5348942;26;19937;-80
2024/04/23 11:44:12;;;;;;;;;;;;;;;;;;5341400;26;20256;-83
2024/04/23 11:46:37;;;;;;;;;;;;;;;;;;5338776;26;20278;-80
2024/04/23 11:49:06;;;;;;;;;;;;;;;;;;5335345;26;19931;-81
2024/04/23 11:51:32;;;;;;;;;;;;;;;;;;5342626;26;19930;-81
2024/04/23 11:54:01;;;;;;;;;;;;;;;;;;5355164;26;19930;-81
2024/04/23 11:56:27;;;;;;;;;;;;;;;;;;5351424;26;19965;-82
2024/04/23 11:58:55;;;;;;;;;;;;;;;;;;5352536;26;19930;-81
2024/04/23 12:01:21;;;;;;;;;;;;;;;;;;5352950;26;20252;-81
2024/04/23 12:03:54;;;;;;;;;;;;;;;;;;5345220;26;19930;-81
2024/04/23 12:06:20;;;;;;;;;;;;;;;;;;5337748;26;19942;-80
2024/04/23 12:08:49;;;;;;;;;;;;;;;;;;5334628;26;20025;-81
2024/04/23 12:11:15;;;;;;;;;;;;;;;;;;5343454;26;19930;-79
2024/04/23 12:13:43;;;;;;;;;;;;;;;;;;5345565;26;19930;-80
2024/04/23 12:16:11;;;;;;;;;;;;;;;;;;5337796;26;19938;-80
2024/04/23 12:18:40;;;;;;;;;;;;;;;;;;5336761;26;19949;-81
2024/04/23 12:21:06;;;;;;;;;;;;;;;;;;5335936;26;19931;-80
2024/04/23 12:23:34;;;;;;;;;;;;;;;;;;5345659;26;19936;-80
2024/04/23 12:26:00;;;;;;;;;;;;;;;;;;5358940;26;19938;-80
2024/04/23 12:28:29;;;;;;;;;;;;;;;;;;5357716;26;19931;-80
2024/04/23 12:30:55;;;;;;;;;;;;;;;;;;5360028;26;19938;-80
2024/04/23 12:33:24;;;;;;;;;;;;;;;;;;5355757;26;19937;-79
2024/04/23 12:35:50;;;;;;;;;;;;;;;;;;5354974;26;19938;-80
2024/04/23 12:38:19;;;;;;;;;;;;;;;;;;5352577;26;19930;-80
2024/04/23 12:40:45;;;;;;;;;;;;;;;;;;5351808;26;20010;-80
2024/04/23 12:43:13;;;;;;;;;;;;;;;;;;5352445;26;19930;-79
2024/04/23 12:45:39;;;;;;;;;;;;;;;;;;5350026;26;19930;-81
2024/04/23 12:48:08;;;;;;;;;;;;;;;;;;5351634;26;19937;-82
2024/04/23 12:50:34;;;;;;;;;;;;;;;;;;5352086;26;19930;-81
2024/04/23 12:53:03;;;;;;;;;;;;;;;;;;5351864;26;19938;-78
2024/04/23 12:55:31;;;;;;;;;;;;;;;;;;5348017;26;19965;-80
2024/04/23 12:57:57;;;;;;;;;;;;;;;;;;5353716;26;19936;-81
2024/04/23 13:00:26;;;;;;;;;;;;;;;;;;5361692;26;19929;-81
2024/04/23 13:02:52;;;;;;;;;;;;;;;;;;5353038;26;19934;-80
2024/04/23 13:05:21;;;;;;;;;;;;;;;;;;5359472;26;19934;-81
2024/04/23 13:07:47;;;;;;;;;;;;;;;;;;5351288;26;19937;-80
2024/04/23 13:10:15;;;;;;;;;;;;;;;;;;5353879;26;19930;-79
2024/04/23 13:12:41;;;;;;;;;;;;;;;;;;5351468;26;19946;-81
2024/04/23 13:15:10;;;;;;;;;;;;;;;;;;5355684;26;20336;-80
2024/04/23 13:17:36;;;;;;;;;;;;;;;;;;5353781;26;20386;-80
2024/04/23 13:20:05;;;;;;;;;;;;;;;;;;5368195;26;19930;-79
2024/04/23 13:22:31;;;;;;;;;;;;;;;;;;5350451;26;19930;-79
2024/04/23 13:25:01;;;;;;;;;;;;;;;;;;5353821;26;19941;-81
2024/04/23 13:27:27;;;;;;;;;;;;;;;;;;5347526;26;19959;-80
2024/04/23 13:29:56;;;;;;;;;;;;;;;;;;5337750;26;19999;-81
2024/04/23 13:32:24;;;;;;;;;;;;;;;;;;5335523;26;19930;-79
2024/04/23 13:34:50;;;;;;;;;;;;;;;;;;5333148;26;19930;-80
2024/04/23 13:37:19;;;;;;;;;;;;;;;;;;5339982;26;19942;-79
2024/04/23 13:39:45;;;;;;;;;;;;;;;;;;5336826;26;19930;-79
2024/04/23 13:42:13;;;;;;;;;;;;;;;;;;5332677;26;20267;-80
2024/04/23 13:44:39;;;;;;;;;;;;;;;;;;5337166;26;19937;-80
2024/04/23 13:47:08;;;;;;;;;;;;;;;;;;5334068;26;19945;-78
2024/04/23 13:49:34;;;;;;;;;;;;;;;;;;5357603;26;20523;-77
2024/04/23 13:52:02;;;;;;;;;;;;;;;;;;5370235;26;20004;-78
2024/04/23 13:54:28;;;;;;;;;;;;;;;;;;5359582;26;19989;-81
2024/04/23 13:56:57;;;;;;;;;;;;;;;;;;5375996;26;19930;-81
2024/04/23 13:59:23;;;;;;;;;;;;;;;;;;5365180;26;19937;-81
2024/04/23 14:01:52;;;;;;;;;;;;;;;;;;5357770;26;19957;-81
2024/04/23 14:04:24;;;;;;;;;;;;;;;;;;5348285;26;19981;-81
2024/04/23 14:06:53;;;;;;;;;;;;;;;;;;5369785;26;19929;-79
2024/04/23 14:09:21;;;;;;;;;;;;;;;;;;5359716;26;20311;-81
2024/04/23 14:11:47;;;;;;;;;;;;;;;;;;5367203;26;19929;-80
2024/04/23 14:14:16;;;;;;;;;;;;;;;;;;5360160;26;19933;-80
2024/04/23 14:16:42;;;;;;;;;;;;;;;;;;5358401;26;19945;-80
2024/04/23 14:19:11;;;;;;;;;;;;;;;;;;5353065;26;19930;-81
2024/04/23 14:21:37;;;;;;;;;;;;;;;;;;5352608;26;19930;-81
2024/04/23 14:24:06;;;;;;;;;;;;;;;;;;5363579;26;19936;-81
2024/04/23 14:26:32;;;;;;;;;;;;;;;;;;5356709;26;19930;-80
2024/04/23 14:29:01;;;;;;;;;;;;;;;;;;5353818;26;20000;-82
2024/04/23 14:31:27;;;;;;;;;;;;;;;;;;5353496;26;19937;-81
2024/04/23 14:33:55;;;;;;;;;;;;;;;;;;5353101;26;19942;-81
2024/04/23 14:36:21;;;;;;;;;;;;;;;;;;5352750;26;19937;-81
2024/04/23 14:38:50;;;;;;;;;;;;;;;;;;5351783;26;20337;-81
2024/04/23 14:41:16;;;;;;;;;;;;;;;;;;5354867;26;19930;-81
2024/04/23 14:43:44;;;;;;;;;;;;;;;;;;5355177;26;19945;-81
2024/04/23 14:46:10;;;;;;;;;;;;;;;;;;5362081;26;19937;-81
2024/04/23 14:48:39;;;;;;;;;;;;;;;;;;5362568;26;19966;-81
2024/04/23 14:51:05;;;;;;;;;;;;;;;;;;5361120;26;19930;-81
2024/04/23 14:53:33;;;;;;;;;;;;;;;;;;5355545;26;19936;-83
2024/04/23 14:55:59;;;;;;;;;;;;;;;;;;5356008;26;19937;-81
2024/04/23 14:58:28;;;;;;;;;;;;;;;;;;5353397;26;19938;-81
2024/04/23 15:00:54;;;;;;;;;;;;;;;;;;5356629;26;19937;-81
2024/04/23 15:03:23;;;;;;;;;;;;;;;;;;5355084;26;20299;-80
2024/04/23 15:05:49;;;;;;;;;;;;;;;;;;5342495;26;19929;-80
2024/04/23 15:08:17;;;;;;;;;;;;;;;;;;5339716;26;20721;-81
2024/04/23 15:10:43;;;;;;;;;;;;;;;;;;5354156;26;19930;-82
2024/04/23 15:13:12;;;;;;;;;;;;;;;;;;5363308;26;19936;-81
2024/04/23 15:15:38;;;;;;;;;;;;;;;;;;5355447;26;19942;-80
2024/04/23 15:18:07;;;;;;;;;;;;;;;;;;5354206;26;19937;-81
2024/04/23 15:20:33;;;;;;;;;;;;;;;;;;5358121;26;19938;-80
2024/04/23 15:23:01;;;;;;;;;;;;;;;;;;5357227;26;19930;-79
2024/04/23 15:25:27;;;;;;;;;;;;;;;;;;5355336;26;20220;-79
2024/04/23 15:27:56;;;;;;;;;;;;;;;;;;5359029;26;19936;-80
2024/04/23 15:30:24;;;;;;;;;;;;;;;;;;5359122;26;20278;-82
2024/04/23 15:32:53;;;;;;;;;;;;;;;;;;5356931;26;19930;-80
2024/04/23 15:35:19;;;;;;;;;;;;;;;;;;5355693;26;19942;-80
2024/04/23 15:37:47;;;;;;;;;;;;;;;;;;5353512;26;19964;-80
2024/04/23 15:40:13;;;;;;;;;;;;;;;;;;5355173;26;20275;-80
2024/04/23 15:42:42;;;;;;;;;;;;;;;;;;5353661;26;19938;-81
2024/04/23 15:45:09;;;;;;;;;;;;;;;;;;5353601;26;19937;-80
2024/04/23 15:47:38;;;;;;;;;;;;;;;;;;5352756;26;19937;-79
2024/04/23 15:50:04;;;;;;;;;;;;;;;;;;5353760;26;19937;-80
2024/04/23 15:52:32;;;;;;;;;;;;;;;;;;5352757;26;20371;-79
2024/04/23 15:54:58;;;;;;;;;;;;;;;;;;5339038;26;19930;-79
2024/04/23 15:57:27;;;;;;;;;;;;;;;;;;5354681;26;19930;-80
2024/04/23 15:59:53;;;;;;;;;;;;;;;;;;5352693;26;19938;-80
2024/04/23 16:02:21;;;;;;;;;;;;;;;;;;5358522;26;19937;-79
2024/04/23 16:04:47;;;;;;;;;;;;;;;;;;5352840;26;19965;-80
2024/04/23 16:07:16;;;;;;;;;;;;;;;;;;5353320;26;19938;-80
2024/04/23 16:09:42;;;;;;;;;;;;;;;;;;5352894;26;19938;-80
2024/04/23 16:12:11;;;;;;;;;;;;;;;;;;5352219;26;19950;-81
2024/04/23 16:14:37;;;;;;;;;;;;;;;;;;5354021;26;19942;-80
2024/04/23 16:17:05;;;;;;;;;;;;;;;;;;5350083;26;20264;-81
2024/04/23 16:19:31;;;;;;;;;;;;;;;;;;5349925;26;20669;-80
2024/04/23 16:22:00;;;;;;;;;;;;;;;;;;5350948;26;19934;-81
2024/04/23 16:24:26;;;;;;;;;;;;;;;;;;5351142;26;19937;-81
2024/04/23 16:26:54;;;;;;;;;;;;;;;;;;5351208;26;20267;-81
2024/04/23 16:29:20;;;;;;;;;;;;;;;;;;5346683;26;19937;-80
2024/04/23 16:31:49;;;;;;;;;;;;;;;;;;5349454;26;19930;-81
2024/04/23 16:34:15;;;;;;;;;;;;;;;;;;5348893;26;19936;-85
2024/04/23 16:36:44;;;;;;;;;;;;;;;;;;5348025;26;20008;-80
2024/04/23 16:39:10;;;;;;;;;;;;;;;;;;5350064;26;20397;-81
2024/04/23 16:41:42;;;;;;;;;;;;;;;;;;5351206;26;19930;-82
2024/04/23 16:44:08;;;;;;;;;;;;;;;;;;5353349;26;19938;-82
2024/04/23 16:46:37;;;;;;;;;;;;;;;;;;5351517;26;19930;-81
2024/04/23 16:49:03;;;;;;;;;;;;;;;;;;5349367;26;19938;-82
2024/04/23 16:51:31;;;;;;;;;;;;;;;;;;5351138;26;19977;-81
2024/04/23 16:54:01;;;;;;;;;;;;;;;;;;5354993;26;19930;-81
2024/04/23 16:56:30;;;;;;;;;;;;;;;;;;5332172;26;19931;-83
2024/04/23 16:58:56;;;;;;;;;;;;;;;;;;5353597;26;19937;-82